sensor_id;sensor_type;location;lat;lon;timestamp;temperature;humidity
21759;DHT22;11041;50.854;20.580;2022-09-29T00:00:49;11.10;99.90
21759;DHT22;11041;50.854;20.580;2022-09-29T00:03:29;11.10;99.90
21759;DHT22;11041;50.854;20.580;2022-09-29T00:05:56;11.10;99.90
21759;DHT22;11041;50.854;20.580;2022-09-29T00:08:27;11.10;99.90
21759;DHT22;11041;50.854;20.580;2022-09-29T00:10:54;11.10;99.90
21759;DHT22;11041;50.854;20.580;2022-09-29T00:13:22;11.00;99.90
21759;DHT22;11041;50.854;20.580;2022-09-29T00:16:00;11.00;99.90
21759;DHT22;11041;50.854;20.580;2022-09-29T00:18:29;11.00;99.90
21759;DHT22;11041;50.854;20.580;2022-09-29T00:21:02;11.10;99.90
21759;DHT22;11041;50.854;20.580;2022-09-29T00:23:34;11.10;99.90
21759;DHT22;11041;50.854;20.580;2022-09-29T00:26:15;11.10;99.90
21759;DHT22;11041;50.854;20.580;2022-09-29T00:28:52;11.10;99.90
21759;DHT22;11041;50.854;20.580;2022-09-29T00:31:29;11.10;99.90
21759;DHT22;11041;50.854;20.580;2022-09-29T00:33:57;11.20;99.90
21759;DHT22;11041;50.854;20.580;2022-09-29T00:36:25;11.10;99.90
21759;DHT22;11041;50.854;20.580;2022-09-29T00:38:54;11.10;99.90
21759;DHT22;11041;50.854;20.580;2022-09-29T00:41:24;11.10;99.90
21759;DHT22;11041;50.854;20.580;2022-09-29T00:44:02;11.00;99.90
21759;DHT22;11041;50.854;20.580;2022-09-29T00:47:00;11.00;99.90
21759;DHT22;11041;50.854;20.580;2022-09-29T00:49:38;11.10;99.90
21759;DHT22;11041;50.854;20.580;2022-09-29T00:52:25;11.00;99.90
21759;DHT22;11041;50.854;20.580;2022-09-29T00:55:08;11.10;99.90
21759;DHT22;11041;50.854;20.580;2022-09-29T00:57:48;11.10;99.90
21759;DHT22;11041;50.854;20.580;2022-09-29T01:00:21;11.00;99.90
21759;DHT22;11041;50.854;20.580;2022-09-29T01:03:12;11.00;99.90
21759;DHT22;11041;50.854;20.580;2022-09-29T01:05:46;10.90;99.90
21759;DHT22;11041;50.854;20.580;2022-09-29T01:09:03;10.90;99.90
21759;DHT22;11041;50.854;20.580;2022-09-29T01:11:33;10.80;99.90
21759;DHT22;11041;50.854;20.580;2022-09-29T01:14:03;10.80;99.90
21759;DHT22;11041;50.854;20.580;2022-09-29T01:16:34;10.90;99.90
21759;DHT22;11041;50.854;20.580;2022-09-29T01:19:07;10.80;99.90
21759;DHT22;11041;50.854;20.580;2022-09-29T01:24:35;10.90;99.90
21759;DHT22;11041;50.854;20.580;2022-09-29T01:27:40;10.80;99.90
21759;DHT22;11041;50.854;20.580;2022-09-29T01:39:40;10.90;99.90
21759;DHT22;11041;50.854;20.580;2022-09-29T01:42:17;10.90;99.90
21759;DHT22;11041;50.854;20.580;2022-09-29T01:44:54;10.90;99.90
21759;DHT22;11041;50.854;20.580;2022-09-29T01:47:26;10.90;99.90
21759;DHT22;11041;50.854;20.580;2022-09-29T01:50:03;10.90;99.90
21759;DHT22;11041;50.854;20.580;2022-09-29T01:52:43;10.70;99.90
21759;DHT22;11041;50.854;20.580;2022-09-29T01:55:17;10.60;99.90
21759;DHT22;11041;50.854;20.580;2022-09-29T01:58:01;10.60;99.90
21759;DHT22;11041;50.854;20.580;2022-09-29T02:00:40;10.70;99.90
21759;DHT22;11041;50.854;20.580;2022-09-29T02:03:16;10.70;99.90
21759;DHT22;11041;50.854;20.580;2022-09-29T02:05:52;10.80;99.90
21759;DHT22;11041;50.854;20.580;2022-09-29T02:08:42;10.70;99.90
21759;DHT22;11041;50.854;20.580;2022-09-29T02:11:13;10.60;99.90
21759;DHT22;11041;50.854;20.580;2022-09-29T02:14:02;10.70;99.90
21759;DHT22;11041;50.854;20.580;2022-09-29T02:16:33;10.70;99.90
21759;DHT22;11041;50.854;20.580;2022-09-29T02:19:27;10.70;99.90
21759;DHT22;11041;50.854;20.580;2022-09-29T02:21:57;10.80;99.90
21759;DHT22;11041;50.854;20.580;2022-09-29T02:24:24;10.80;99.90
21759;DHT22;11041;50.854;20.580;2022-09-29T02:26:51;10.80;99.90
21759;DHT22;11041;50.854;20.580;2022-09-29T02:29:19;10.70;99.90
21759;DHT22;11041;50.854;20.580;2022-09-29T02:31:47;10.80;99.90
21759;DHT22;11041;50.854;20.580;2022-09-29T02:34:20;10.80;99.90
21759;DHT22;11041;50.854;20.580;2022-09-29T02:36:56;10.70;99.90
21759;DHT22;11041;50.854;20.580;2022-09-29T02:39:58;10.70;99.90
21759;DHT22;11041;50.854;20.580;2022-09-29T02:42:44;10.70;99.90
21759;DHT22;11041;50.854;20.580;2022-09-29T02:51:43;10.70;99.90
21759;DHT22;11041;50.854;20.580;2022-09-29T02:57:44;10.60;99.90
21759;DHT22;11041;50.854;20.580;2022-09-29T03:00:14;10.60;99.90
21759;DHT22;11041;50.854;20.580;2022-09-29T03:02:43;10.50;99.90
21759;DHT22;11041;50.854;20.580;2022-09-29T03:05:21;10.60;99.90
21759;DHT22;11041;50.854;20.580;2022-09-29T03:07:49;10.60;99.90
21759;DHT22;11041;50.854;20.580;2022-09-29T03:10:16;11.00;99.90
21759;DHT22;11041;50.854;20.580;2022-09-29T03:12:44;10.70;99.90
21759;DHT22;11041;50.854;20.580;2022-09-29T03:15:11;10.70;99.90
21759;DHT22;11041;50.854;20.580;2022-09-29T03:17:38;10.70;99.90
21759;DHT22;11041;50.854;20.580;2022-09-29T03:20:06;10.60;99.90
21759;DHT22;11041;50.854;20.580;2022-09-29T03:22:34;10.50;99.90
21759;DHT22;11041;50.854;20.580;2022-09-29T03:25:00;10.50;99.90
21759;DHT22;11041;50.854;20.580;2022-09-29T03:27:28;10.40;99.90
21759;DHT22;11041;50.854;20.580;2022-09-29T03:29:55;10.50;99.90
21759;DHT22;11041;50.854;20.580;2022-09-29T03:32:21;10.50;99.90
21759;DHT22;11041;50.854;20.580;2022-09-29T03:34:48;10.60;99.90
21759;DHT22;11041;50.854;20.580;2022-09-29T03:37:15;10.60;99.90
21759;DHT22;11041;50.854;20.580;2022-09-29T03:39:41;10.60;99.90
21759;DHT22;11041;50.854;20.580;2022-09-29T03:42:08;10.70;99.90
21759;DHT22;11041;50.854;20.580;2022-09-29T03:44:34;10.60;99.90
21759;DHT22;11041;50.854;20.580;2022-09-29T03:47:01;10.60;99.90
21759;DHT22;11041;50.854;20.580;2022-09-29T03:49:27;10.50;99.90
21759;DHT22;11041;50.854;20.580;2022-09-29T03:51:55;10.50;99.90
21759;DHT22;11041;50.854;20.580;2022-09-29T03:54:21;10.50;99.90
21759;DHT22;11041;50.854;20.580;2022-09-29T03:56:49;10.40;99.90
21759;DHT22;11041;50.854;20.580;2022-09-29T03:59:16;10.50;99.90
21759;DHT22;11041;50.854;20.580;2022-09-29T04:01:42;10.60;99.90
21759;DHT22;11041;50.854;20.580;2022-09-29T04:04:09;10.50;99.90
21759;DHT22;11041;50.854;20.580;2022-09-29T04:06:36;10.40;99.90
21759;DHT22;11041;50.854;20.580;2022-09-29T04:09:02;10.30;99.90
21759;DHT22;11041;50.854;20.580;2022-09-29T04:11:29;10.30;99.90
21759;DHT22;11041;50.854;20.580;2022-09-29T04:13:56;10.30;99.90
21759;DHT22;11041;50.854;20.580;2022-09-29T04:16:22;10.20;99.90
21759;DHT22;11041;50.854;20.580;2022-09-29T04:18:49;10.20;99.90
21759;DHT22;11041;50.854;20.580;2022-09-29T04:21:15;10.30;99.90
21759;DHT22;11041;50.854;20.580;2022-09-29T04:23:42;10.20;99.90
21759;DHT22;11041;50.854;20.580;2022-09-29T04:26:09;10.20;99.90
21759;DHT22;11041;50.854;20.580;2022-09-29T04:28:36;10.40;99.90
21759;DHT22;11041;50.854;20.580;2022-09-29T04:31:04;10.20;99.90
21759;DHT22;11041;50.854;20.580;2022-09-29T04:33:30;10.20;99.90
21759;DHT22;11041;50.854;20.580;2022-09-29T04:35:58;10.20;99.90
21759;DHT22;11041;50.854;20.580;2022-09-29T04:38:25;10.30;99.90
21759;DHT22;11041;50.854;20.580;2022-09-29T04:44:21;10.30;99.90
21759;DHT22;11041;50.854;20.580;2022-09-29T04:46:50;10.20;99.90
21759;DHT22;11041;50.854;20.580;2022-09-29T04:49:19;10.20;99.90
21759;DHT22;11041;50.854;20.580;2022-09-29T04:51:46;10.30;99.90
21759;DHT22;11041;50.854;20.580;2022-09-29T04:54:13;10.40;99.90
21759;DHT22;11041;50.854;20.580;2022-09-29T04:56:39;10.40;99.90
21759;DHT22;11041;50.854;20.580;2022-09-29T04:59:06;10.40;99.90
21759;DHT22;11041;50.854;20.580;2022-09-29T05:01:34;10.40;99.90
21759;DHT22;11041;50.854;20.580;2022-09-29T05:04:01;10.40;99.90
21759;DHT22;11041;50.854;20.580;2022-09-29T05:06:28;10.40;99.90
21759;DHT22;11041;50.854;20.580;2022-09-29T05:08:54;10.40;99.90
21759;DHT22;11041;50.854;20.580;2022-09-29T05:11:20;10.40;99.90
21759;DHT22;11041;50.854;20.580;2022-09-29T05:13:48;10.30;99.90
21759;DHT22;11041;50.854;20.580;2022-09-29T05:16:18;10.20;99.90
21759;DHT22;11041;50.854;20.580;2022-09-29T05:18:44;10.20;99.90
21759;DHT22;11041;50.854;20.580;2022-09-29T05:21:11;10.20;99.90
21759;DHT22;11041;50.854;20.580;2022-09-29T05:23:37;10.10;99.90
21759;DHT22;11041;50.854;20.580;2022-09-29T05:26:06;10.10;99.90
21759;DHT22;11041;50.854;20.580;2022-09-29T05:28:34;10.10;99.90
21759;DHT22;11041;50.854;20.580;2022-09-29T05:31:02;10.00;99.90
21759;DHT22;11041;50.854;20.580;2022-09-29T05:33:34;10.10;99.90
21759;DHT22;11041;50.854;20.580;2022-09-29T05:36:09;10.20;99.90
21759;DHT22;11041;50.854;20.580;2022-09-29T05:38:37;10.20;99.90
21759;DHT22;11041;50.854;20.580;2022-09-29T05:41:10;10.30;99.90
21759;DHT22;11041;50.854;20.580;2022-09-29T05:43:38;10.30;99.90
21759;DHT22;11041;50.854;20.580;2022-09-29T05:46:07;10.30;99.90
21759;DHT22;11041;50.854;20.580;2022-09-29T05:48:35;10.40;99.90
21759;DHT22;11041;50.854;20.580;2022-09-29T05:51:11;10.30;99.90
21759;DHT22;11041;50.854;20.580;2022-09-29T05:53:40;10.20;99.90
21759;DHT22;11041;50.854;20.580;2022-09-29T05:56:12;10.10;99.90
21759;DHT22;11041;50.854;20.580;2022-09-29T05:58:40;10.10;99.90
21759;DHT22;11041;50.854;20.580;2022-09-29T06:01:13;10.20;99.90
21759;DHT22;11041;50.854;20.580;2022-09-29T06:03:42;10.30;99.90
21759;DHT22;11041;50.854;20.580;2022-09-29T06:06:20;10.30;99.90
21759;DHT22;11041;50.854;20.580;2022-09-29T06:08:49;10.30;99.90
21759;DHT22;11041;50.854;20.580;2022-09-29T06:11:22;10.30;99.90
21759;DHT22;11041;50.854;20.580;2022-09-29T06:13:54;10.20;99.90
21759;DHT22;11041;50.854;20.580;2022-09-29T06:16:23;10.20;99.90
21759;DHT22;11041;50.854;20.580;2022-09-29T06:18:52;10.20;99.90
21759;DHT22;11041;50.854;20.580;2022-09-29T06:21:25;10.20;99.90
21759;DHT22;11041;50.854;20.580;2022-09-29T06:23:56;10.10;99.90
21759;DHT22;11041;50.854;20.580;2022-09-29T06:26:25;10.30;99.90
21759;DHT22;11041;50.854;20.580;2022-09-29T06:28:53;10.40;99.90
21759;DHT22;11041;50.854;20.580;2022-09-29T07:07:40;10.70;99.90
21759;DHT22;11041;50.854;20.580;2022-09-29T07:10:11;10.70;99.90
21759;DHT22;11041;50.854;20.580;2022-09-29T07:12:37;10.60;99.90
21759;DHT22;11041;50.854;20.580;2022-09-29T07:15:04;10.50;99.90
21759;DHT22;11041;50.854;20.580;2022-09-29T07:17:31;10.60;99.90
21759;DHT22;11041;50.854;20.580;2022-09-29T07:19:57;10.60;99.90
21759;DHT22;11041;50.854;20.580;2022-09-29T07:22:24;10.60;99.90
21759;DHT22;11041;50.854;20.580;2022-09-29T07:24:51;10.70;99.90
21759;DHT22;11041;50.854;20.580;2022-09-29T07:27:18;10.60;99.90
21759;DHT22;11041;50.854;20.580;2022-09-29T07:29:50;10.60;99.90
21759;DHT22;11041;50.854;20.580;2022-09-29T07:32:18;10.60;99.90
21759;DHT22;11041;50.854;20.580;2022-09-29T07:34:44;10.50;99.90
21759;DHT22;11041;50.854;20.580;2022-09-29T07:37:11;10.60;99.90
21759;DHT22;11041;50.854;20.580;2022-09-29T07:39:38;10.60;99.90
21759;DHT22;11041;50.854;20.580;2022-09-29T07:42:05;10.70;99.90
21759;DHT22;11041;50.854;20.580;2022-09-29T07:44:31;10.60;99.90
21759;DHT22;11041;50.854;20.580;2022-09-29T07:46:59;10.50;99.90
21759;DHT22;11041;50.854;20.580;2022-09-29T07:49:25;10.60;99.90
21759;DHT22;11041;50.854;20.580;2022-09-29T07:51:52;10.70;99.90
21759;DHT22;11041;50.854;20.580;2022-09-29T07:54:19;10.80;99.90
21759;DHT22;11041;50.854;20.580;2022-09-29T07:56:45;11.00;99.90
21759;DHT22;11041;50.854;20.580;2022-09-29T07:59:12;11.00;99.90
21759;DHT22;11041;50.854;20.580;2022-09-29T08:01:39;11.00;99.90
21759;DHT22;11041;50.854;20.580;2022-09-29T08:04:06;11.20;99.90
21759;DHT22;11041;50.854;20.580;2022-09-29T08:06:32;11.00;99.90
21759;DHT22;11041;50.854;20.580;2022-09-29T08:09:00;11.20;99.90
21759;DHT22;11041;50.854;20.580;2022-09-29T08:11:30;11.10;99.90
21759;DHT22;11041;50.854;20.580;2022-09-29T08:13:59;11.20;99.90
21759;DHT22;11041;50.854;20.580;2022-09-29T08:16:26;11.30;99.90
21759;DHT22;11041;50.854;20.580;2022-09-29T08:18:54;11.30;99.90
21759;DHT22;11041;50.854;20.580;2022-09-29T08:21:20;11.20;99.90
21759;DHT22;11041;50.854;20.580;2022-09-29T08:23:47;11.20;99.90
21759;DHT22;11041;50.854;20.580;2022-09-29T08:26:16;11.20;99.90
21759;DHT22;11041;50.854;20.580;2022-09-29T08:28:46;11.20;99.90
21759;DHT22;11041;50.854;20.580;2022-09-29T08:31:16;11.10;99.90
21759;DHT22;11041;50.854;20.580;2022-09-29T08:33:49;11.20;99.90
21759;DHT22;11041;50.854;20.580;2022-09-29T08:36:18;11.20;99.90
21759;DHT22;11041;50.854;20.580;2022-09-29T08:38:50;11.20;99.90
21759;DHT22;11041;50.854;20.580;2022-09-29T08:44:21;11.10;99.90
21759;DHT22;11041;50.854;20.580;2022-09-29T08:50:24;11.20;99.90
21759;DHT22;11041;50.854;20.580;2022-09-29T08:53:03;11.20;99.90
21759;DHT22;11041;50.854;20.580;2022-09-29T08:55:49;11.40;99.90
21759;DHT22;11041;50.854;20.580;2022-09-29T08:58:20;11.40;99.90
21759;DHT22;11041;50.854;20.580;2022-09-29T09:07:51;11.50;99.90
21759;DHT22;11041;50.854;20.580;2022-09-29T09:13:23;11.60;99.90
21759;DHT22;11041;50.854;20.580;2022-09-29T09:22:40;11.80;99.90
21759;DHT22;11041;50.854;20.580;2022-09-29T09:34:36;12.00;99.90
21759;DHT22;11041;50.854;20.580;2022-09-29T09:42:35;11.90;99.90
21759;DHT22;11041;50.854;20.580;2022-09-29T09:45:27;11.90;99.90
21759;DHT22;11041;50.854;20.580;2022-09-29T09:48:04;12.10;99.90
21759;DHT22;11041;50.854;20.580;2022-09-29T09:50:52;12.30;99.90
21759;DHT22;11041;50.854;20.580;2022-09-29T09:53:25;12.40;99.90
21759;DHT22;11041;50.854;20.580;2022-09-29T10:01:53;12.70;99.90
21759;DHT22;11041;50.854;20.580;2022-09-29T10:04:20;12.70;99.90
21759;DHT22;11041;50.854;20.580;2022-09-29T10:06:49;12.70;99.90
21759;DHT22;11041;50.854;20.580;2022-09-29T10:09:17;12.70;99.90
21759;DHT22;11041;50.854;20.580;2022-09-29T10:11:45;12.50;99.90
21759;DHT22;11041;50.854;20.580;2022-09-29T10:14:18;12.40;99.90
21759;DHT22;11041;50.854;20.580;2022-09-29T10:17:07;12.50;99.90
21759;DHT22;11041;50.854;20.580;2022-09-29T10:19:54;12.40;99.90
21759;DHT22;11041;50.854;20.580;2022-09-29T10:22:25;12.50;99.90
21759;DHT22;11041;50.854;20.580;2022-09-29T10:25:06;12.50;99.90
21759;DHT22;11041;50.854;20.580;2022-09-29T10:27:44;12.60;99.90
21759;DHT22;11041;50.854;20.580;2022-09-29T10:30:23;12.40;99.90
21759;DHT22;11041;50.854;20.580;2022-09-29T10:33:03;12.50;99.90
21759;DHT22;11041;50.854;20.580;2022-09-29T10:35:35;12.60;99.90
21759;DHT22;11041;50.854;20.580;2022-09-29T10:38:17;12.50;99.90
21759;DHT22;11041;50.854;20.580;2022-09-29T10:40:58;12.50;99.90
21759;DHT22;11041;50.854;20.580;2022-09-29T10:43:47;12.60;99.90
21759;DHT22;11041;50.854;20.580;2022-09-29T10:49:24;12.40;99.90
21759;DHT22;11041;50.854;20.580;2022-09-29T10:54:33;12.30;99.90
21759;DHT22;11041;50.854;20.580;2022-09-29T10:57:12;12.30;99.90
21759;DHT22;11041;50.854;20.580;2022-09-29T10:59:48;12.30;99.90
21759;DHT22;11041;50.854;20.580;2022-09-29T11:02:42;12.20;99.90
21759;DHT22;11041;50.854;20.580;2022-09-29T11:05:22;12.20;99.90
21759;DHT22;11041;50.854;20.580;2022-09-29T11:07:50;12.20;99.90
21759;DHT22;11041;50.854;20.580;2022-09-29T11:10:32;12.30;99.90
21759;DHT22;11041;50.854;20.580;2022-09-29T11:13:37;12.30;99.90
21759;DHT22;11041;50.854;20.580;2022-09-29T11:16:13;12.30;99.90
21759;DHT22;11041;50.854;20.580;2022-09-29T11:18:54;12.30;99.90
21759;DHT22;11041;50.854;20.580;2022-09-29T11:27:50;12.60;99.90
21759;DHT22;11041;50.854;20.580;2022-09-29T11:31:02;12.70;99.90
21759;DHT22;11041;50.854;20.580;2022-09-29T11:39:35;12.60;99.90
21759;DHT22;11041;50.854;20.580;2022-09-29T11:45:10;12.40;99.90
21759;DHT22;11041;50.854;20.580;2022-09-29T11:48:05;12.20;99.90
21759;DHT22;11041;50.854;20.580;2022-09-29T12:01:00;12.30;99.90
21759;DHT22;11041;50.854;20.580;2022-09-29T12:04:03;12.60;99.90
21759;DHT22;11041;50.854;20.580;2022-09-29T12:09:55;12.80;99.90
21759;DHT22;11041;50.854;20.580;2022-09-29T12:15:51;12.90;99.90
21759;DHT22;11041;50.854;20.580;2022-09-29T12:18:32;12.90;99.90
21759;DHT22;11041;50.854;20.580;2022-09-29T12:21:10;13.00;99.90
21759;DHT22;11041;50.854;20.580;2022-09-29T12:23:40;13.10;99.90
21759;DHT22;11041;50.854;20.580;2022-09-29T12:26:21;13.20;99.90
21759;DHT22;11041;50.854;20.580;2022-09-29T12:31:57;12.80;99.90
21759;DHT22;11041;50.854;20.580;2022-09-29T12:34:54;12.90;99.90
21759;DHT22;11041;50.854;20.580;2022-09-29T12:37:40;12.80;99.90
21759;DHT22;11041;50.854;20.580;2022-09-29T12:43:04;13.00;99.90
21759;DHT22;11041;50.854;20.580;2022-09-29T12:46:24;13.10;99.90
21759;DHT22;11041;50.854;20.580;2022-09-29T12:52:18;13.20;99.90
21759;DHT22;11041;50.854;20.580;2022-09-29T12:54:56;13.10;99.90
21759;DHT22;11041;50.854;20.580;2022-09-29T12:57:38;12.90;99.90
21759;DHT22;11041;50.854;20.580;2022-09-29T13:00:14;12.90;99.90
21759;DHT22;11041;50.854;20.580;2022-09-29T13:21:09;13.00;99.90
21759;DHT22;11041;50.854;20.580;2022-09-29T13:24:21;13.10;99.90
21759;DHT22;11041;50.854;20.580;2022-09-29T13:30:02;13.30;99.90
21759;DHT22;11041;50.854;20.580;2022-09-29T13:35:47;13.40;99.90
21759;DHT22;11041;50.854;20.580;2022-09-29T13:38:36;13.30;99.90
21759;DHT22;11041;50.854;20.580;2022-09-29T13:46:36;13.60;99.90
21759;DHT22;11041;50.854;20.580;2022-09-29T13:51:57;13.70;99.90
21759;DHT22;11041;50.854;20.580;2022-09-29T13:54:38;13.70;99.90
21759;DHT22;11041;50.854;20.580;2022-09-29T13:57:19;13.70;99.90
21759;DHT22;11041;50.854;20.580;2022-09-29T14:10:43;13.20;99.90
21759;DHT22;11041;50.854;20.580;2022-09-29T14:13:44;13.40;99.90
21759;DHT22;11041;50.854;20.580;2022-09-29T14:16:30;13.50;99.90
21759;DHT22;11041;50.854;20.580;2022-09-29T14:22:00;13.70;99.90
21759;DHT22;11041;50.854;20.580;2022-09-29T14:29:50;13.70;99.90
21759;DHT22;11041;50.854;20.580;2022-09-29T14:32:32;13.60;99.90
21759;DHT22;11041;50.854;20.580;2022-09-29T14:38:33;13.60;99.90
21759;DHT22;11041;50.854;20.580;2022-09-29T14:43:39;13.60;99.90
21759;DHT22;11041;50.854;20.580;2022-09-29T14:53:25;13.60;99.90
21759;DHT22;11041;50.854;20.580;2022-09-29T14:56:19;13.60;99.90
21759;DHT22;11041;50.854;20.580;2022-09-29T14:59:11;13.60;99.90
21759;DHT22;11041;50.854;20.580;2022-09-29T15:04:41;13.50;99.90
21759;DHT22;11041;50.854;20.580;2022-09-29T15:07:13;13.40;99.90
21759;DHT22;11041;50.854;20.580;2022-09-29T15:09:52;13.40;99.90
21759;DHT22;11041;50.854;20.580;2022-09-29T15:12:28;13.40;99.90
21759;DHT22;11041;50.854;20.580;2022-09-29T15:14:57;13.40;99.90
21759;DHT22;11041;50.854;20.580;2022-09-29T15:20:33;13.30;99.90
21759;DHT22;11041;50.854;20.580;2022-09-29T15:26:21;13.20;99.90
21759;DHT22;11041;50.854;20.580;2022-09-29T15:28:50;13.10;99.90
21759;DHT22;11041;50.854;20.580;2022-09-29T15:31:24;13.00;99.90
21759;DHT22;11041;50.854;20.580;2022-09-29T15:33:54;13.00;99.90
21759;DHT22;11041;50.854;20.580;2022-09-29T15:36:23;12.90;99.90
21759;DHT22;11041;50.854;20.580;2022-09-29T15:39:00;13.00;99.90
21759;DHT22;11041;50.854;20.580;2022-09-29T15:41:33;13.00;99.90
21759;DHT22;11041;50.854;20.580;2022-09-29T15:44:18;12.90;99.90
21759;DHT22;11041;50.854;20.580;2022-09-29T15:46:49;13.00;99.90
21759;DHT22;11041;50.854;20.580;2022-09-29T15:49:18;12.90;99.90
21759;DHT22;11041;50.854;20.580;2022-09-29T15:51:59;12.90;99.90
21759;DHT22;11041;50.854;20.580;2022-09-29T15:54:38;12.80;99.90
21759;DHT22;11041;50.854;20.580;2022-09-29T16:05:35;12.50;99.90
21759;DHT22;11041;50.854;20.580;2022-09-29T16:08:16;12.50;99.90
21759;DHT22;11041;50.854;20.580;2022-09-29T16:10:51;12.60;99.90
21759;DHT22;11041;50.854;20.580;2022-09-29T16:13:24;12.60;99.90
21759;DHT22;11041;50.854;20.580;2022-09-29T16:16:05;12.60;99.90
21759;DHT22;11041;50.854;20.580;2022-09-29T16:18:48;12.50;99.90
21759;DHT22;11041;50.854;20.580;2022-09-29T16:21:20;12.50;99.90
21759;DHT22;11041;50.854;20.580;2022-09-29T16:24:00;12.40;99.90
21759;DHT22;11041;50.854;20.580;2022-09-29T16:26:40;12.30;99.90
21759;DHT22;11041;50.854;20.580;2022-09-29T16:31:43;12.30;99.90
21759;DHT22;11041;50.854;20.580;2022-09-29T16:34:31;12.30;99.90
21759;DHT22;11041;50.854;20.580;2022-09-29T16:37:05;12.10;99.90
21759;DHT22;11041;50.854;20.580;2022-09-29T16:39:49;12.10;99.90
21759;DHT22;11041;50.854;20.580;2022-09-29T16:42:36;11.90;99.90
21759;DHT22;11041;50.854;20.580;2022-09-29T16:45:05;11.90;99.90
21759;DHT22;11041;50.854;20.580;2022-09-29T16:47:36;11.80;99.90
21759;DHT22;11041;50.854;20.580;2022-09-29T16:50:58;11.80;99.90
21759;DHT22;11041;50.854;20.580;2022-09-29T16:53:35;11.60;99.90
21759;DHT22;11041;50.854;20.580;2022-09-29T16:56:25;11.40;99.90
21759;DHT22;11041;50.854;20.580;2022-09-29T16:59:12;11.30;99.90
21759;DHT22;11041;50.854;20.580;2022-09-29T17:01:42;11.30;99.90
21759;DHT22;11041;50.854;20.580;2022-09-29T17:04:17;11.10;99.90
21759;DHT22;11041;50.854;20.580;2022-09-29T17:06:47;11.10;99.90
21759;DHT22;11041;50.854;20.580;2022-09-29T17:09:26;11.10;99.90
21759;DHT22;11041;50.854;20.580;2022-09-29T17:12:12;11.00;99.90
21759;DHT22;11041;50.854;20.580;2022-09-29T17:14:56;10.80;99.90
21759;DHT22;11041;50.854;20.580;2022-09-29T17:18:12;10.70;99.90
21759;DHT22;11041;50.854;20.580;2022-09-29T17:29:47;9.90;99.90
21759;DHT22;11041;50.854;20.580;2022-09-29T17:33:00;9.80;99.90
21759;DHT22;11041;50.854;20.580;2022-09-29T17:57:33;7.80;99.90
21759;DHT22;11041;50.854;20.580;2022-09-29T18:00:31;7.60;99.90
21759;DHT22;11041;50.854;20.580;2022-09-29T18:04:36;8.90;99.90
21759;DHT22;11041;50.854;20.580;2022-09-29T18:12:26;8.70;99.90
21759;DHT22;11041;50.854;20.580;2022-09-29T18:28:02;8.20;99.90
21759;DHT22;11041;50.854;20.580;2022-09-29T18:42:59;8.10;99.90
21759;DHT22;11041;50.854;20.580;2022-09-29T18:45:42;7.60;99.90
21759;DHT22;11041;50.854;20.580;2022-09-29T18:49:40;8.50;99.90
21759;DHT22;11041;50.854;20.580;2022-09-29T19:05:32;7.60;99.90
21759;DHT22;11041;50.854;20.580;2022-09-29T20:22:02;6.80;99.90
21759;DHT22;11041;50.854;20.580;2022-09-29T20:24:30;6.60;99.90
21759;DHT22;11041;50.854;20.580;2022-09-29T20:26:57;6.60;99.90
21759;DHT22;11041;50.854;20.580;2022-09-29T20:29:24;6.50;99.90
21759;DHT22;11041;50.854;20.580;2022-09-29T20:31:57;6.50;99.90
21759;DHT22;11041;50.854;20.580;2022-09-29T20:34:27;6.40;99.90
21759;DHT22;11041;50.854;20.580;2022-09-29T20:36:57;6.50;99.90
21759;DHT22;11041;50.854;20.580;2022-09-29T20:39:27;6.40;99.90
21759;DHT22;11041;50.854;20.580;2022-09-29T20:58:27;6.10;99.90
21759;DHT22;11041;50.854;20.580;2022-09-29T21:01:15;6.00;99.90
21759;DHT22;11041;50.854;20.580;2022-09-29T21:04:17;6.00;99.90
21759;DHT22;11041;50.854;20.580;2022-09-29T21:06:48;6.00;99.90
21759;DHT22;11041;50.854;20.580;2022-09-29T21:09:21;6.10;99.90
21759;DHT22;11041;50.854;20.580;2022-09-29T21:11:49;6.00;99.90
21759;DHT22;11041;50.854;20.580;2022-09-29T21:14:23;5.90;99.90
21759;DHT22;11041;50.854;20.580;2022-09-29T21:16:51;5.90;99.90
21759;DHT22;11041;50.854;20.580;2022-09-29T21:19:20;5.90;99.90
21759;DHT22;11041;50.854;20.580;2022-09-29T21:21:55;5.90;99.90
21759;DHT22;11041;50.854;20.580;2022-09-29T21:24:22;6.00;99.90
21759;DHT22;11041;50.854;20.580;2022-09-29T21:26:48;5.90;99.90
21759;DHT22;11041;50.854;20.580;2022-09-29T21:29:16;5.90;99.90
21759;DHT22;11041;50.854;20.580;2022-09-29T21:31:44;5.90;99.90
21759;DHT22;11041;50.854;20.580;2022-09-29T21:34:12;5.80;99.90
21759;DHT22;11041;50.854;20.580;2022-09-29T21:36:40;5.70;99.90
21759;DHT22;11041;50.854;20.580;2022-09-29T21:39:07;5.80;99.90
21759;DHT22;11041;50.854;20.580;2022-09-29T21:41:36;5.80;99.90
21759;DHT22;11041;50.854;20.580;2022-09-29T21:44:06;5.90;99.90
21759;DHT22;11041;50.854;20.580;2022-09-29T21:46:38;5.80;99.90
21759;DHT22;11041;50.854;20.580;2022-09-29T21:49:06;5.70;99.90
21759;DHT22;11041;50.854;20.580;2022-09-29T21:51:35;5.90;99.90
21759;DHT22;11041;50.854;20.580;2022-09-29T21:54:04;5.90;99.90
21759;DHT22;11041;50.854;20.580;2022-09-29T21:56:37;5.80;99.90
21759;DHT22;11041;50.854;20.580;2022-09-29T21:59:06;5.90;99.90
21759;DHT22;11041;50.854;20.580;2022-09-29T22:01:34;6.00;99.90
21759;DHT22;11041;50.854;20.580;2022-09-29T22:04:03;6.00;99.90
21759;DHT22;11041;50.854;20.580;2022-09-29T22:06:31;6.10;99.90
21759;DHT22;11041;50.854;20.580;2022-09-29T22:09:00;6.20;99.90
21759;DHT22;11041;50.854;20.580;2022-09-29T22:11:29;6.20;99.90
21759;DHT22;11041;50.854;20.580;2022-09-29T22:13:59;6.00;99.90
21759;DHT22;11041;50.854;20.580;2022-09-29T22:16:29;6.10;99.90
21759;DHT22;11041;50.854;20.580;2022-09-29T22:18:58;6.20;99.90
21759;DHT22;11041;50.854;20.580;2022-09-29T22:21:26;6.10;99.90
21759;DHT22;11041;50.854;20.580;2022-09-29T22:23:59;6.20;99.90
21759;DHT22;11041;50.854;20.580;2022-09-29T22:26:30;6.40;99.90
21759;DHT22;11041;50.854;20.580;2022-09-29T22:28:58;6.50;99.90
21759;DHT22;11041;50.854;20.580;2022-09-29T22:31:27;6.50;99.90
21759;DHT22;11041;50.854;20.580;2022-09-29T22:33:59;6.40;99.90
21759;DHT22;11041;50.854;20.580;2022-09-29T22:36:29;6.40;99.90
21759;DHT22;11041;50.854;20.580;2022-09-29T22:38:58;6.40;99.90
21759;DHT22;11041;50.854;20.580;2022-09-29T22:41:25;6.30;99.90
21759;DHT22;11041;50.854;20.580;2022-09-29T22:43:53;6.20;99.90
21759;DHT22;11041;50.854;20.580;2022-09-29T22:46:22;6.10;99.90